Alburtis, Pennsylvania
Current Conditions -  °F | °C
As of 3:55 AM on Wednesday 26 Nov 2014 (Local Time) from KXLL Reporting Station
Overcast Overcast  
Wind Chill: 39°   Ceiling: 9500
Heat Index: 39°   Visibility: 10mi
Dew Point: 34°   Wind: 3mph
Humidity: 81%   Direction: 340°NNW
Pressure: 30.19"   Gusts: NA
Location:  40.51°N, 75.6°W
Report Text: KXLL 260855Z AUTO 34003KT 10SM SCT070 OVC095 04/01 A3019 RMK AO2
Loading
Personal Weather Stations






























Interactive Weather Map New forecast layout! Learn more

10-Day Weather Forecast

Advertisements
Track Severe Weather on mobile